sensor_id;sensor_type;location;lat;lon;timestamp;pressure;altitude;pressure_sealevel;temperature;humidity
4199;BME280;2113;50.946;14.610;2023-09-12T00:00:53;96879.03;;;15.76;78.10
4199;BME280;2113;50.946;14.610;2023-09-12T00:03:23;96883.69;;;15.69;78.66
4199;BME280;2113;50.946;14.610;2023-09-12T00:05:52;96892.22;;;15.48;78.13
4199;BME280;2113;50.946;14.610;2023-09-12T00:08:20;96875.66;;;15.57;77.87
4199;BME280;2113;50.946;14.610;2023-09-12T00:10:59;96876.97;;;15.55;78.29
4199;BME280;2113;50.946;14.610;2023-09-12T00:13:28;96876.03;;;15.61;78.54
4199;BME280;2113;50.946;14.610;2023-09-12T00:15:56;96881.75;;;15.64;78.89
4199;BME280;2113;50.946;14.610;2023-09-12T00:18:25;96881.50;;;15.66;78.54
4199;BME280;2113;50.946;14.610;2023-09-12T00:20:53;96878.03;;;15.65;78.22
4199;BME280;2113;50.946;14.610;2023-09-12T00:23:22;96886.22;;;15.41;78.66
4199;BME280;2113;50.946;14.610;2023-09-12T00:25:51;96872.25;;;15.45;78.61
4199;BME280;2113;50.946;14.610;2023-09-12T00:28:21;96873.00;;;15.57;79.21
4199;BME280;2113;50.946;14.610;2023-09-12T00:30:51;96876.03;;;15.61;78.22
4199;BME280;2113;50.946;14.610;2023-09-12T00:33:19;96874.19;;;15.50;78.54
4199;BME280;2113;50.946;14.610;2023-09-12T00:35:47;96861.81;;;15.55;78.56
4199;BME280;2113;50.946;14.610;2023-09-12T00:38:16;96864.38;;;15.38;78.88
4199;BME280;2113;50.946;14.610;2023-09-12T00:40:44;96859.31;;;15.37;79.18
4199;BME280;2113;50.946;14.610;2023-09-12T00:43:12;96872.00;;;15.23;79.86
4199;BME280;2113;50.946;14.610;2023-09-12T00:45:42;96866.69;;;15.23;80.36
4199;BME280;2113;50.946;14.610;2023-09-12T00:48:10;96856.41;;;15.38;79.67
4199;BME280;2113;50.946;14.610;2023-09-12T00:50:41;96860.56;;;15.34;79.69
4199;BME280;2113;50.946;14.610;2023-09-12T00:53:10;96859.63;;;15.41;79.44
4199;BME280;2113;50.946;14.610;2023-09-12T00:55:42;96857.31;;;15.32;79.49
4199;BME280;2113;50.946;14.610;2023-09-12T00:58:13;96861.59;;;15.45;78.99
4199;BME280;2113;50.946;14.610;2023-09-12T01:00:42;96857.53;;;15.43;79.18
4199;BME280;2113;50.946;14.610;2023-09-12T01:03:11;96859.50;;;15.35;79.33
4199;BME280;2113;50.946;14.610;2023-09-12T01:05:41;96857.91;;;15.23;78.90
4199;BME280;2113;50.946;14.610;2023-09-12T01:08:10;96865.19;;;15.16;79.18
4199;BME280;2113;50.946;14.610;2023-09-12T01:10:39;96865.41;;;15.14;79.63
4199;BME280;2113;50.946;14.610;2023-09-12T01:13:14;96857.22;;;15.16;79.53
4199;BME280;2113;50.946;14.610;2023-09-12T01:15:43;96860.88;;;15.15;79.53
4199;BME280;2113;50.946;14.610;2023-09-12T01:18:12;96866.09;;;15.21;79.52
4199;BME280;2113;50.946;14.610;2023-09-12T01:20:42;96859.88;;;15.39;78.92
4199;BME280;2113;50.946;14.610;2023-09-12T01:23:29;96870.72;;;15.26;79.31
4199;BME280;2113;50.946;14.610;2023-09-12T01:26:17;96861.69;;;15.15;79.56
4199;BME280;2113;50.946;14.610;2023-09-12T01:28:47;96867.47;;;15.12;79.60
4199;BME280;2113;50.946;14.610;2023-09-12T01:31:19;96859.28;;;15.14;79.81
4199;BME280;2113;50.946;14.610;2023-09-12T01:33:48;96856.03;;;15.11;79.97
4199;BME280;2113;50.946;14.610;2023-09-12T01:36:16;96857.44;;;15.14;79.71
4199;BME280;2113;50.946;14.610;2023-09-12T01:38:44;96860.09;;;15.14;79.49
4199;BME280;2113;50.946;14.610;2023-09-12T01:41:13;96859.41;;;15.19;79.40
4199;BME280;2113;50.946;14.610;2023-09-12T01:43:42;96864.59;;;15.14;79.37
4199;BME280;2113;50.946;14.610;2023-09-12T01:46:14;96858.69;;;15.11;79.31
4199;BME280;2113;50.946;14.610;2023-09-12T01:48:44;96863.22;;;15.11;79.56
4199;BME280;2113;50.946;14.610;2023-09-12T01:51:12;96863.22;;;15.11;79.33
4199;BME280;2113;50.946;14.610;2023-09-12T01:53:42;96866.44;;;15.13;79.33
4199;BME280;2113;50.946;14.610;2023-09-12T01:56:13;96855.69;;;15.20;78.97
4199;BME280;2113;50.946;14.610;2023-09-12T01:58:41;96858.94;;;15.10;79.39
4199;BME280;2113;50.946;14.610;2023-09-12T02:01:12;96858.94;;;15.10;79.23
4199;BME280;2113;50.946;14.610;2023-09-12T02:03:40;96863.28;;;14.93;79.69
4199;BME280;2113;50.946;14.610;2023-09-12T02:06:09;96851.88;;;14.80;79.50
4199;BME280;2113;50.946;14.610;2023-09-12T02:08:37;96857.13;;;14.69;79.92
4199;BME280;2113;50.946;14.610;2023-09-12T02:11:06;96858.84;;;14.63;79.85
4199;BME280;2113;50.946;14.610;2023-09-12T02:13:34;96867.84;;;14.62;79.80
4199;BME280;2113;50.946;14.610;2023-09-12T02:16:02;96862.28;;;14.52;79.96
4199;BME280;2113;50.946;14.610;2023-09-12T02:18:32;96863.91;;;14.53;79.79
4199;BME280;2113;50.946;14.610;2023-09-12T02:21:00;96861.94;;;14.48;79.87
4199;BME280;2113;50.946;14.610;2023-09-12T02:23:29;96858.81;;;14.51;80.27
4199;BME280;2113;50.946;14.610;2023-09-12T02:25:57;96861.13;;;14.48;80.79
4199;BME280;2113;50.946;14.610;2023-09-12T02:28:25;96863.91;;;14.53;80.58
4199;BME280;2113;50.946;14.610;2023-09-12T02:30:53;96863.59;;;14.43;80.61
4199;BME280;2113;50.946;14.610;2023-09-12T02:33:22;96864.06;;;14.40;80.59
4199;BME280;2113;50.946;14.610;2023-09-12T02:35:51;96858.28;;;14.31;81.15
4199;BME280;2113;50.946;14.610;2023-09-12T02:38:20;96858.47;;;14.48;80.01
4199;BME280;2113;50.946;14.610;2023-09-12T02:40:48;96853.69;;;14.38;80.56
4199;BME280;2113;50.946;14.610;2023-09-12T02:43:16;96858.94;;;14.26;80.73
4199;BME280;2113;50.946;14.610;2023-09-12T02:45:44;96849.69;;;14.17;81.01
4199;BME280;2113;50.946;14.610;2023-09-12T02:48:12;96857.84;;;14.16;80.46
4199;BME280;2113;50.946;14.610;2023-09-12T02:50:41;96857.41;;;14.19;80.72
4199;BME280;2113;50.946;14.610;2023-09-12T02:53:11;96857.09;;;14.27;80.96
4199;BME280;2113;50.946;14.610;2023-09-12T02:55:40;96858.03;;;14.33;80.83
4199;BME280;2113;50.946;14.610;2023-09-12T02:58:09;96855.56;;;14.19;80.53
4199;BME280;2113;50.946;14.610;2023-09-12T03:00:38;96864.41;;;14.13;80.96
4199;BME280;2113;50.946;14.610;2023-09-12T03:03:08;96855.25;;;14.09;81.24
4199;BME280;2113;50.946;14.610;2023-09-12T03:05:38;96860.38;;;14.11;81.13
4199;BME280;2113;50.946;14.610;2023-09-12T03:08:06;96862.72;;;14.19;81.05
4199;BME280;2113;50.946;14.610;2023-09-12T03:10:36;96859.09;;;14.13;80.86
4199;BME280;2113;50.946;14.610;2023-09-12T03:13:04;96861.19;;;14.11;80.87
4199;BME280;2113;50.946;14.610;2023-09-12T03:15:36;96864.72;;;14.05;81.35
4199;BME280;2113;50.946;14.610;2023-09-12T03:18:09;96846.88;;;14.12;81.39
4199;BME280;2113;50.946;14.610;2023-09-12T03:20:38;96856.22;;;14.15;81.61
4199;BME280;2113;50.946;14.610;2023-09-12T03:23:07;96849.69;;;14.17;81.56
4199;BME280;2113;50.946;14.610;2023-09-12T03:25:37;96856.91;;;14.10;81.78
4199;BME280;2113;50.946;14.610;2023-09-12T03:28:06;96854.59;;;14.14;81.72
4199;BME280;2113;50.946;14.610;2023-09-12T03:30:36;96859.03;;;14.20;81.68
4199;BME280;2113;50.946;14.610;2023-09-12T03:33:05;96859.81;;;14.20;81.74
4199;BME280;2113;50.946;14.610;2023-09-12T03:35:34;96855.28;;;14.39;81.31
4199;BME280;2113;50.946;14.610;2023-09-12T03:38:03;96853.53;;;14.33;81.16
4199;BME280;2113;50.946;14.610;2023-09-12T03:40:31;96857.13;;;14.39;80.91
4199;BME280;2113;50.946;14.610;2023-09-12T03:43:01;96860.84;;;14.38;81.24
4199;BME280;2113;50.946;14.610;2023-09-12T03:45:30;96857.47;;;14.42;80.97
4199;BME280;2113;50.946;14.610;2023-09-12T03:47:58;96856.75;;;14.35;80.89
4199;BME280;2113;50.946;14.610;2023-09-12T03:50:27;96850.16;;;14.26;81.20
4199;BME280;2113;50.946;14.610;2023-09-12T03:52:55;96851.72;;;14.15;81.35
4199;BME280;2113;50.946;14.610;2023-09-12T03:55:23;96855.88;;;14.11;81.70
4199;BME280;2113;50.946;14.610;2023-09-12T03:57:51;96856.91;;;14.10;81.55
4199;BME280;2113;50.946;14.610;2023-09-12T04:00:21;96863.50;;;14.19;81.29
4199;BME280;2113;50.946;14.610;2023-09-12T04:02:49;96862.78;;;14.12;81.34
4199;BME280;2113;50.946;14.610;2023-09-12T04:05:21;96861.59;;;14.08;81.21
4199;BME280;2113;50.946;14.610;2023-09-12T04:07:49;96870.44;;;14.02;81.40
4199;BME280;2113;50.946;14.610;2023-09-12T04:10:17;96863.69;;;14.06;81.52
4199;BME280;2113;50.946;14.610;2023-09-12T04:12:46;96862.31;;;14.15;81.47
4199;BME280;2113;50.946;14.610;2023-09-12T04:15:15;96861.91;;;14.18;81.26
4199;BME280;2113;50.946;14.610;2023-09-12T04:17:44;96858.94;;;14.26;80.96
4199;BME280;2113;50.946;14.610;2023-09-12T04:20:13;96863.34;;;14.33;80.75
4199;BME280;2113;50.946;14.610;2023-09-12T04:22:42;96858.22;;;14.19;80.88
4199;BME280;2113;50.946;14.610;2023-09-12T04:25:11;96860.72;;;14.14;80.95
4199;BME280;2113;50.946;14.610;2023-09-12T04:27:41;96864.13;;;14.03;81.12
4199;BME280;2113;50.946;14.610;2023-09-12T04:30:10;96860.44;;;14.04;81.26
4199;BME280;2113;50.946;14.610;2023-09-12T04:32:38;96857.66;;;13.99;81.47
4199;BME280;2113;50.946;14.610;2023-09-12T04:35:08;96868.72;;;13.96;81.65
4199;BME280;2113;50.946;14.610;2023-09-12T04:37:36;96864.28;;;13.90;81.90
4199;BME280;2113;50.946;14.610;2023-09-12T04:40:07;96865.75;;;14.04;81.70
4199;BME280;2113;50.946;14.610;2023-09-12T04:42:35;96858.38;;;14.06;81.52
4199;BME280;2113;50.946;14.610;2023-09-12T04:45:04;96861.53;;;14.15;81.26
4199;BME280;2113;50.946;14.610;2023-09-12T04:47:33;96859.59;;;14.22;81.27
4199;BME280;2113;50.946;14.610;2023-09-12T04:50:02;96858.03;;;14.33;80.88
4199;BME280;2113;50.946;14.610;2023-09-12T04:52:32;96853.69;;;14.38;81.27
4199;BME280;2113;50.946;14.610;2023-09-12T04:55:00;96861.03;;;14.54;80.70
4199;BME280;2113;50.946;14.610;2023-09-12T04:57:30;96860.22;;;14.66;80.41
4199;BME280;2113;50.946;14.610;2023-09-12T05:00:00;96856.13;;;14.81;79.93
4199;BME280;2113;50.946;14.610;2023-09-12T05:02:30;96860.97;;;14.84;80.01
4199;BME280;2113;50.946;14.610;2023-09-12T05:04:58;96854.28;;;14.94;79.49
4199;BME280;2113;50.946;14.610;2023-09-12T05:07:26;96858.69;;;15.00;79.26
4199;BME280;2113;50.946;14.610;2023-09-12T05:09:56;96859.97;;;15.09;79.27
4199;BME280;2113;50.946;14.610;2023-09-12T05:12:25;96858.94;;;15.33;78.80
4199;BME280;2113;50.946;14.610;2023-09-12T05:14:53;96860.19;;;15.43;78.45
4199;BME280;2113;50.946;14.610;2023-09-12T05:17:22;96867.50;;;15.59;78.02
4199;BME280;2113;50.946;14.610;2023-09-12T05:19:50;96857.66;;;15.71;77.77
4199;BME280;2113;50.946;14.610;2023-09-12T05:22:18;96861.22;;;15.88;77.02
4199;BME280;2113;50.946;14.610;2023-09-12T05:24:47;96855.16;;;16.05;76.53
4199;BME280;2113;50.946;14.610;2023-09-12T05:27:17;96847.38;;;16.15;76.49
4199;BME280;2113;50.946;14.610;2023-09-12T05:29:46;96849.78;;;16.28;76.01
4199;BME280;2113;50.946;14.610;2023-09-12T05:32:14;96855.28;;;16.38;75.62
4199;BME280;2113;50.946;14.610;2023-09-12T05:34:43;96854.63;;;16.48;75.75
4199;BME280;2113;50.946;14.610;2023-09-12T05:37:13;96861.53;;;16.61;75.09
4199;BME280;2113;50.946;14.610;2023-09-12T05:39:41;96865.53;;;16.75;74.79
4199;BME280;2113;50.946;14.610;2023-09-12T05:42:10;96866.69;;;16.79;74.92
4199;BME280;2113;50.946;14.610;2023-09-12T05:44:41;96860.56;;;16.95;74.62
4199;BME280;2113;50.946;14.610;2023-09-12T05:47:09;96857.47;;;17.03;74.46
4199;BME280;2113;50.946;14.610;2023-09-12T05:49:37;96865.56;;;17.09;74.54
4199;BME280;2113;50.946;14.610;2023-09-12T05:52:05;96862.81;;;17.20;74.33
4199;BME280;2113;50.946;14.610;2023-09-12T05:54:33;96867.34;;;17.20;73.96
4199;BME280;2113;50.946;14.610;2023-09-12T05:57:03;96864.91;;;17.35;73.82
4199;BME280;2113;50.946;14.610;2023-09-12T05:59:35;96867.47;;;17.47;73.03
4199;BME280;2113;50.946;14.610;2023-09-12T06:02:05;96859.44;;;17.64;73.04
4199;BME280;2113;50.946;14.610;2023-09-12T06:04:36;96861.34;;;17.85;72.66
4199;BME280;2113;50.946;14.610;2023-09-12T06:07:04;96861.84;;;18.04;72.35
4199;BME280;2113;50.946;14.610;2023-09-12T06:09:33;96865.81;;;18.23;71.36
4199;BME280;2113;50.946;14.610;2023-09-12T06:12:01;96870.06;;;18.46;70.83
4199;BME280;2113;50.946;14.610;2023-09-12T06:14:29;96862.16;;;18.56;69.99
4199;BME280;2113;50.946;14.610;2023-09-12T06:16:57;96869.06;;;18.52;70.52
4199;BME280;2113;50.946;14.610;2023-09-12T06:19:27;96863.22;;;18.55;70.61
4199;BME280;2113;50.946;14.610;2023-09-12T06:21:56;96864.22;;;18.49;70.57
4199;BME280;2113;50.946;14.610;2023-09-12T06:24:25;96869.06;;;18.52;70.12
4199;BME280;2113;50.946;14.610;2023-09-12T06:26:53;96874.72;;;18.56;69.70
4199;BME280;2113;50.946;14.610;2023-09-12T06:29:21;96871.28;;;18.60;69.79
4199;BME280;2113;50.946;14.610;2023-09-12T06:31:50;96864.31;;;18.59;69.55
4199;BME280;2113;50.946;14.610;2023-09-12T06:34:18;96868.19;;;18.69;69.50
4199;BME280;2113;50.946;14.610;2023-09-12T06:36:47;96868.28;;;18.79;69.59
4199;BME280;2113;50.946;14.610;2023-09-12T06:39:16;96867.28;;;18.85;68.96
4199;BME280;2113;50.946;14.610;2023-09-12T06:41:44;96871.88;;;18.94;69.43
4199;BME280;2113;50.946;14.610;2023-09-12T06:44:12;96875.00;;;19.13;69.31
4199;BME280;2113;50.946;14.610;2023-09-12T06:46:40;96879.31;;;19.19;68.96
4199;BME280;2113;50.946;14.610;2023-09-12T06:49:08;96885.22;;;19.21;68.89
4199;BME280;2113;50.946;14.610;2023-09-12T06:51:37;96881.53;;;19.28;68.78
4199;BME280;2113;50.946;14.610;2023-09-12T06:54:07;96880.34;;;19.51;69.02
4199;BME280;2113;50.946;14.610;2023-09-12T06:56:35;96882.34;;;19.65;67.89
4199;BME280;2113;50.946;14.610;2023-09-12T06:59:04;96881.41;;;19.92;66.25
4199;BME280;2113;50.946;14.610;2023-09-12T07:01:33;96877.94;;;20.59;64.22
4199;BME280;2113;50.946;14.610;2023-09-12T07:04:01;96867.88;;;24.46;53.53
4199;BME280;2113;50.946;14.610;2023-09-12T07:06:30;96855.91;;;27.69;44.71
4199;BME280;2113;50.946;14.610;2023-09-12T07:08:59;96854.47;;;29.03;42.24
4199;BME280;2113;50.946;14.610;2023-09-12T07:11:30;96852.16;;;31.58;36.32
4199;BME280;2113;50.946;14.610;2023-09-12T07:13:59;96861.44;;;31.45;35.82
4199;BME280;2113;50.946;14.610;2023-09-12T07:16:28;96852.03;;;33.17;32.81
4199;BME280;2113;50.946;14.610;2023-09-12T07:18:56;96871.06;;;31.22;35.79
4199;BME280;2113;50.946;14.610;2023-09-12T07:21:24;96871.78;;;29.71;38.34
4199;BME280;2113;50.946;14.610;2023-09-12T07:23:53;96871.22;;;28.70;39.88
4199;BME280;2113;50.946;14.610;2023-09-12T07:26:21;96876.97;;;30.40;37.34
4199;BME280;2113;50.946;14.610;2023-09-12T07:28:54;96863.59;;;31.64;35.60
4199;BME280;2113;50.946;14.610;2023-09-12T07:31:22;96877.69;;;31.54;35.24
4199;BME280;2113;50.946;14.610;2023-09-12T07:33:51;96864.88;;;33.01;32.44
4199;BME280;2113;50.946;14.610;2023-09-12T07:36:19;96864.59;;;34.57;29.16
4199;BME280;2113;50.946;14.610;2023-09-12T07:38:47;96863.09;;;37.34;26.76
4199;BME280;2113;50.946;14.610;2023-09-12T07:41:16;96860.72;;;35.74;28.54
4199;BME280;2113;50.946;14.610;2023-09-12T07:43:46;96862.72;;;37.77;25.69
4199;BME280;2113;50.946;14.610;2023-09-12T07:46:15;96875.41;;;34.18;30.24
4199;BME280;2113;50.946;14.610;2023-09-12T07:48:43;96872.22;;;34.48;30.65
4199;BME280;2113;50.946;14.610;2023-09-12T07:51:12;96863.88;;;37.01;27.69
4199;BME280;2113;50.946;14.610;2023-09-12T07:53:41;96863.56;;;35.58;29.41
4199;BME280;2113;50.946;14.610;2023-09-12T07:56:10;96866.09;;;35.28;28.98
4199;BME280;2113;50.946;14.610;2023-09-12T07:58:38;96865.00;;;36.44;27.83
4199;BME280;2113;50.946;14.610;2023-09-12T08:01:06;96870.25;;;38.24;25.69
4199;BME280;2113;50.946;14.610;2023-09-12T08:03:37;96873.47;;;34.03;30.32
4199;BME280;2113;50.946;14.610;2023-09-12T08:06:07;96869.66;;;35.71;29.53
4199;BME280;2113;50.946;14.610;2023-09-12T08:08:35;96872.09;;;35.95;27.97
4199;BME280;2113;50.946;14.610;2023-09-12T08:11:03;96870.81;;;35.70;28.86
4199;BME280;2113;50.946;14.610;2023-09-12T08:13:31;96867.72;;;35.94;28.06
4199;BME280;2113;50.946;14.610;2023-09-12T08:16:00;96874.63;;;35.42;29.44
4199;BME280;2113;50.946;14.610;2023-09-12T08:18:29;96874.25;;;35.86;28.60
4199;BME280;2113;50.946;14.610;2023-09-12T08:20:59;96877.72;;;35.02;28.93
4199;BME280;2113;50.946;14.610;2023-09-12T08:23:27;96876.59;;;34.68;29.64
4199;BME280;2113;50.946;14.610;2023-09-12T08:25:56;96878.50;;;33.13;31.70
4199;BME280;2113;50.946;14.610;2023-09-12T08:28:24;96879.63;;;34.31;30.99
4199;BME280;2113;50.946;14.610;2023-09-12T08:30:53;96876.72;;;35.49;29.04
4199;BME280;2113;50.946;14.610;2023-09-12T08:33:21;96878.56;;;33.88;30.96
4199;BME280;2113;50.946;14.610;2023-09-12T08:35:52;96880.25;;;35.30;28.85
4199;BME280;2113;50.946;14.610;2023-09-12T08:38:22;96871.34;;;37.01;27.56
4199;BME280;2113;50.946;14.610;2023-09-12T08:40:50;96867.31;;;37.62;26.38
4199;BME280;2113;50.946;14.610;2023-09-12T08:43:20;96878.16;;;36.08;28.45
4199;BME280;2113;50.946;14.610;2023-09-12T08:45:48;96883.25;;;35.87;29.09
4199;BME280;2113;50.946;14.610;2023-09-12T08:48:19;96880.91;;;34.69;30.97
4199;BME280;2113;50.946;14.610;2023-09-12T08:50:51;96875.91;;;36.14;28.18
4199;BME280;2113;50.946;14.610;2023-09-12T08:53:22;96873.69;;;36.72;28.88
4199;BME280;2113;50.946;14.610;2023-09-12T08:55:51;96877.53;;;35.11;30.29
4199;BME280;2113;50.946;14.610;2023-09-12T08:58:20;96880.88;;;35.23;30.42
4199;BME280;2113;50.946;14.610;2023-09-12T09:00:50;96883.81;;;35.11;31.58
4199;BME280;2113;50.946;14.610;2023-09-12T09:03:20;96881.09;;;34.95;30.65
4199;BME280;2113;50.946;14.610;2023-09-12T09:05:51;96885.22;;;33.44;33.05
4199;BME280;2113;50.946;14.610;2023-09-12T09:08:20;96878.63;;;35.68;28.56
4199;BME280;2113;50.946;14.610;2023-09-12T09:10:56;96872.50;;;35.74;28.72
4199;BME280;2113;50.946;14.610;2023-09-12T09:13:24;96881.22;;;36.26;29.05
4199;BME280;2113;50.946;14.610;2023-09-12T09:16:12;96868.53;;;36.71;27.98
4199;BME280;2113;50.946;14.610;2023-09-12T09:18:51;96870.06;;;37.62;26.81
4199;BME280;2113;50.946;14.610;2023-09-12T09:21:22;96866.06;;;37.93;25.99
4199;BME280;2113;50.946;14.610;2023-09-12T09:23:53;96868.91;;;38.04;25.10
4199;BME280;2113;50.946;14.610;2023-09-12T09:26:23;96877.38;;;35.04;29.79
4199;BME280;2113;50.946;14.610;2023-09-12T09:29:03;96872.75;;;36.65;28.11
4199;BME280;2113;50.946;14.610;2023-09-12T09:31:31;96871.06;;;38.25;25.96
4199;BME280;2113;50.946;14.610;2023-09-12T09:34:01;96871.94;;;36.61;26.44
4199;BME280;2113;50.946;14.610;2023-09-12T09:36:31;96862.56;;;36.92;27.60
4199;BME280;2113;50.946;14.610;2023-09-12T09:39:02;96851.84;;;37.87;25.62
4199;BME280;2113;50.946;14.610;2023-09-12T09:41:33;96856.81;;;38.74;26.17
4199;BME280;2113;50.946;14.610;2023-09-12T09:44:01;96859.91;;;36.19;27.35
4199;BME280;2113;50.946;14.610;2023-09-12T09:46:31;96851.69;;;35.96;28.11
4199;BME280;2113;50.946;14.610;2023-09-12T09:49:00;96857.88;;;35.90;29.73
4199;BME280;2113;50.946;14.610;2023-09-12T09:51:29;96850.78;;;37.28;26.89
4199;BME280;2113;50.946;14.610;2023-09-12T09:53:58;96844.69;;;37.08;27.73
4199;BME280;2113;50.946;14.610;2023-09-12T09:56:27;96849.72;;;37.33;26.53
4199;BME280;2113;50.946;14.610;2023-09-12T09:58:58;96842.13;;;37.60;25.64
4199;BME280;2113;50.946;14.610;2023-09-12T10:01:28;96846.56;;;36.18;27.31
4199;BME280;2113;50.946;14.610;2023-09-12T10:03:58;96859.31;;;34.32;31.43
4199;BME280;2113;50.946;14.610;2023-09-12T10:06:28;96851.78;;;34.96;29.75
4199;BME280;2113;50.946;14.610;2023-09-12T10:08:58;96847.63;;;33.13;31.64
4199;BME280;2113;50.946;14.610;2023-09-12T10:11:28;96845.97;;;32.96;32.42
4199;BME280;2113;50.946;14.610;2023-09-12T10:14:03;96848.59;;;33.92;32.37
4199;BME280;2113;50.946;14.610;2023-09-12T10:16:33;96845.97;;;33.68;32.99
4199;BME280;2113;50.946;14.610;2023-09-12T10:19:08;96837.78;;;32.96;32.06
4199;BME280;2113;50.946;14.610;2023-09-12T10:21:45;96841.53;;;33.47;32.54
4199;BME280;2113;50.946;14.610;2023-09-12T10:24:15;96838.69;;;34.38;30.56
4199;BME280;2113;50.946;14.610;2023-09-12T10:26:44;96843.25;;;34.66;30.39
4199;BME280;2113;50.946;14.610;2023-09-12T10:29:14;96839.97;;;34.76;30.14
4199;BME280;2113;50.946;14.610;2023-09-12T10:31:43;96844.03;;;35.21;28.52
4199;BME280;2113;50.946;14.610;2023-09-12T10:34:14;96834.59;;;35.84;28.09
4199;BME280;2113;50.946;14.610;2023-09-12T10:36:45;96845.47;;;34.60;30.46
4199;BME280;2113;50.946;14.610;2023-09-12T10:39:14;96841.47;;;33.75;31.05
4199;BME280;2113;50.946;14.610;2023-09-12T10:41:43;96845.81;;;33.32;31.56
4199;BME280;2113;50.946;14.610;2023-09-12T10:44:16;96847.56;;;32.97;32.81
4199;BME280;2113;50.946;14.610;2023-09-12T10:46:46;96840.72;;;33.03;32.96
4199;BME280;2113;50.946;14.610;2023-09-12T10:49:16;96851.28;;;33.32;32.64
4199;BME280;2113;50.946;14.610;2023-09-12T10:51:47;96852.19;;;32.32;33.90
4199;BME280;2113;50.946;14.610;2023-09-12T10:54:22;96846.47;;;31.76;33.94
4199;BME280;2113;50.946;14.610;2023-09-12T10:57:02;96845.81;;;32.28;33.17
4199;BME280;2113;50.946;14.610;2023-09-12T10:59:33;96838.72;;;32.75;32.57
4199;BME280;2113;50.946;14.610;2023-09-12T11:02:27;96850.94;;;31.92;32.54
4199;BME280;2113;50.946;14.610;2023-09-12T11:04:56;96845.13;;;32.67;32.81
4199;BME280;2113;50.946;14.610;2023-09-12T11:07:44;96852.38;;;32.75;32.09
4199;BME280;2113;50.946;14.610;2023-09-12T11:10:16;96845.63;;;32.97;32.75
4199;BME280;2113;50.946;14.610;2023-09-12T11:12:46;96847.63;;;33.41;31.41
4199;BME280;2113;50.946;14.610;2023-09-12T11:15:17;96849.16;;;32.98;32.69
4199;BME280;2113;50.946;14.610;2023-09-12T11:17:47;96851.28;;;32.28;34.22
4199;BME280;2113;50.946;14.610;2023-09-12T11:20:16;96860.19;;;31.01;37.36
4199;BME280;2113;50.946;14.610;2023-09-12T11:22:46;96863.81;;;30.42;38.33
4199;BME280;2113;50.946;14.610;2023-09-12T11:25:19;96849.69;;;31.11;35.70
4199;BME280;2113;50.946;14.610;2023-09-12T11:28:07;96858.47;;;32.08;33.76
4199;BME280;2113;50.946;14.610;2023-09-12T11:30:54;96852.69;;;32.09;33.97
4199;BME280;2113;50.946;14.610;2023-09-12T11:33:24;96851.75;;;31.81;34.15
4199;BME280;2113;50.946;14.610;2023-09-12T11:35:54;96866.47;;;29.83;36.92
4199;BME280;2113;50.946;14.610;2023-09-12T11:38:31;96858.66;;;30.20;36.50
4199;BME280;2113;50.946;14.610;2023-09-12T11:40:59;96857.31;;;31.18;34.81
4199;BME280;2113;50.946;14.610;2023-09-12T11:43:28;96856.38;;;31.23;34.66
4199;BME280;2113;50.946;14.610;2023-09-12T11:45:58;96857.66;;;31.16;35.08
4199;BME280;2113;50.946;14.610;2023-09-12T11:48:28;96850.38;;;30.07;35.14
4199;BME280;2113;50.946;14.610;2023-09-12T11:50:57;96853.59;;;29.63;38.38
4199;BME280;2113;50.946;14.610;2023-09-12T11:53:28;96851.72;;;30.81;36.20
4199;BME280;2113;50.946;14.610;2023-09-12T11:56:00;96848.94;;;31.56;34.21
4199;BME280;2113;50.946;14.610;2023-09-12T11:58:28;96846.31;;;32.17;33.01
4199;BME280;2113;50.946;14.610;2023-09-12T12:00:58;96845.94;;;32.56;31.92
4199;BME280;2113;50.946;14.610;2023-09-12T12:03:27;96848.81;;;31.86;32.73
4199;BME280;2113;50.946;14.610;2023-09-12T12:05:56;96850.72;;;31.40;33.65
4199;BME280;2113;50.946;14.610;2023-09-12T12:08:25;96846.06;;;31.40;33.16
4199;BME280;2113;50.946;14.610;2023-09-12T12:10:59;96846.78;;;31.16;33.04
4199;BME280;2113;50.946;14.610;2023-09-12T12:13:28;96854.00;;;31.12;34.88
4199;BME280;2113;50.946;14.610;2023-09-12T12:15:58;96836.63;;;31.38;34.00
4199;BME280;2113;50.946;14.610;2023-09-12T12:18:27;96841.31;;;31.16;34.54
4199;BME280;2113;50.946;14.610;2023-09-12T12:20:56;96837.19;;;31.10;34.59
4199;BME280;2113;50.946;14.610;2023-09-12T12:23:25;96833.66;;;31.31;34.48
4199;BME280;2113;50.946;14.610;2023-09-12T12:25:54;96819.19;;;31.51;34.41
4199;BME280;2113;50.946;14.610;2023-09-12T12:28:22;96825.97;;;31.12;33.92
4199;BME280;2113;50.946;14.610;2023-09-12T12:30:52;96825.28;;;30.82;35.72
4199;BME280;2113;50.946;14.610;2023-09-12T12:33:23;96822.94;;;30.72;35.09
4199;BME280;2113;50.946;14.610;2023-09-12T12:36:11;96814.50;;;30.85;35.00
4199;BME280;2113;50.946;14.610;2023-09-12T12:38:39;96813.97;;;30.92;32.74
4199;BME280;2113;50.946;14.610;2023-09-12T12:41:23;96820.50;;;31.33;33.28
4199;BME280;2113;50.946;14.610;2023-09-12T12:43:57;96818.34;;;30.84;33.63
4199;BME280;2113;50.946;14.610;2023-09-12T12:46:30;96821.50;;;31.07;35.03
4199;BME280;2113;50.946;14.610;2023-09-12T12:48:59;96814.03;;;30.83;35.94
4199;BME280;2113;50.946;14.610;2023-09-12T12:51:28;96812.72;;;30.69;35.41
4199;BME280;2113;50.946;14.610;2023-09-12T12:54:04;96809.78;;;29.94;35.22
4199;BME280;2113;50.946;14.610;2023-09-12T12:56:33;96810.38;;;30.79;34.79
4199;BME280;2113;50.946;14.610;2023-09-12T12:59:01;96799.41;;;30.46;35.37
4199;BME280;2113;50.946;14.610;2023-09-12T13:01:30;96811.84;;;30.77;34.64
4199;BME280;2113;50.946;14.610;2023-09-12T13:04:00;96795.00;;;31.16;34.71
4199;BME280;2113;50.946;14.610;2023-09-12T13:06:28;96799.97;;;31.60;33.31
4199;BME280;2113;50.946;14.610;2023-09-12T13:08:58;96809.69;;;31.03;35.29
4199;BME280;2113;50.946;14.610;2023-09-12T13:11:28;96796.47;;;30.93;34.15
4199;BME280;2113;50.946;14.610;2023-09-12T13:13:56;96801.91;;;30.51;34.54
4199;BME280;2113;50.946;14.610;2023-09-12T13:16:24;96799.34;;;30.55;35.01
4199;BME280;2113;50.946;14.610;2023-09-12T13:18:53;96793.03;;;30.63;33.96
4199;BME280;2113;50.946;14.610;2023-09-12T13:21:23;96796.97;;;30.53;36.52
4199;BME280;2113;50.946;14.610;2023-09-12T13:23:51;96797.94;;;30.28;36.54